Darstellungsparameter: Aktuell verwendete Einstellungen:
Skalierung der Graphiken ... ?
xyx+y,   Skalierungsfaktor:      Skalierung: Modus: x, Faktor: 1
Darstellungszeitraum ... ?
Vom - - bis: - -   Zeitraum: 22.04.2010 - 22.04.2010
Min/Max/Avg-Anzeige ... ?
Zeige MMA aktuell
Zeige MMA Monat
Zeige MMA alles
Zeige --A aktuell
Zeige --A Monat
Zeige --A alles
Keine MMA-Anzeige
MMA:
Average (ber die Originaldaten)
MMA-Basis: 22.04.2010 - 22.04.2010
Quicknavigation für Darstellung... ?
Tage:      1T, 2T, 3T, 5T -1T -2T -3T -5T +1T +2T +3T +5T
Wochen: 1W, 2W, 3W -1W -2W -3W +1W +2W +3W
Monate: 1M, 3M, 6M -1M -3M -6M +1M +3M +6M
Jahre:    1J, 3J, 5J, 10J -1J -3J -5J -10J +1J +3J +5J +10J
Nutze für die Darstellung ... ?
Originaldaten oder Mittelwerte auf ...
Stundenbasis Tagesbasis Wochenbasis
Monatsbasis Jahresbasis      Datenbasis: Original-Daten
Darstellen als:
Statistik (Auto) Statistik J:M      Darstellung:
Zur Graphik,    zurück zur Übersicht aller Sensoren.
 
Tabellarische Datenbersicht: ?
 
Sensor: Nr:Datum:Temp:Abs-Feuchte:Windchill:Wind:
Aussen-T/F 1 22-04-2010 00:08:02 4.3 C 3.5 g/m*3 4.3 C 0 km/h
2 22-04-2010 00:20:03 4.1 C 3.46 g/m*3 4.1 C 0 km/h
3 22-04-2010 00:32:03 3.8 C 3.51 g/m*3 3.8 C 0 km/h
4 22-04-2010 00:44:03 3.6 C 3.47 g/m*3 3.6 C 0 km/h
5 22-04-2010 00:56:03 3.5 C 3.57 g/m*3 3.5 C 0 km/h
6 22-04-2010 01:08:03 3.4 C 3.6 g/m*3 3.4 C 0 km/h
7 22-04-2010 01:20:03 3.1 C 3.59 g/m*3 3.1 C 0 km/h
8 22-04-2010 01:32:03 2.9 C 3.66 g/m*3 2.9 C 0 km/h
9 22-04-2010 01:44:03 2.7 C 3.67 g/m*3 2.7 C 0 km/h
10 22-04-2010 01:56:03 2.5 C 3.68 g/m*3 2.5 C 0 km/h
11 22-04-2010 02:08:03 2.3 C 3.69 g/m*3 2.3 C 0 km/h
12 22-04-2010 02:20:03 2.2 C 3.72 g/m*3 2.2 C 0 km/h
13 22-04-2010 02:32:03 2 C 3.78 g/m*3 2 C 0 km/h
14 22-04-2010 02:44:03 2 C 3.78 g/m*3 2 C 0 km/h
15 22-04-2010 02:56:03 1.7 C 3.76 g/m*3 1.7 C 0 km/h
16 22-04-2010 03:08:03 1.5 C 3.71 g/m*3 1.5 C 0 km/h
17 22-04-2010 03:20:03 1.3 C 3.71 g/m*3 1.3 C 0 km/h
18 22-04-2010 03:32:03 1.3 C 3.76 g/m*3 1.3 C 0 km/h
19 22-04-2010 03:44:03 1.2 C 3.74 g/m*3 1.2 C 0 km/h
20 22-04-2010 03:56:03 1.1 C 3.76 g/m*3 1.1 C 0 km/h
21 22-04-2010 04:08:03 1 C 3.79 g/m*3 1 C 0 km/h
22 22-04-2010 04:20:03 0.9 C 3.81 g/m*3 0.9 C 0 km/h
23 22-04-2010 04:32:03 0.8 C 3.79 g/m*3 0.8 C 0 km/h
24 22-04-2010 04:44:04 0.7 C 3.81 g/m*3 0.7 C 0 km/h
25 22-04-2010 04:56:04 0.6 C 3.84 g/m*3 0.6 C 0 km/h
Sensor: Nr:Datum:Temp:Abs-Feuchte:Windchill:Wind:
Aussen-T/F 26 22-04-2010 05:08:04 0.5 C 3.76 g/m*3 0.5 C 0 km/h
27 22-04-2010 05:20:04 0.5 C 3.81 g/m*3 0.5 C 0 km/h
28 22-04-2010 05:32:04 0.3 C 3.76 g/m*3 0.3 C 0 km/h
29 22-04-2010 05:44:04 0.2 C 3.78 g/m*3 0.2 C 0 km/h
30 22-04-2010 05:56:04 0 C 3.73 g/m*3 0 C 0 km/h
31 22-04-2010 06:08:04 -0.2 C 3.68 g/m*3 -0.2 C 0 km/h
32 22-04-2010 06:20:04 -0.2 C 3.73 g/m*3 -0.2 C 0 km/h
33 22-04-2010 06:32:04 -0.2 C 3.73 g/m*3 -0.2 C 0 km/h
34 22-04-2010 06:44:04 -0.1 C 3.8 g/m*3 -0.1 C 0 km/h
35 22-04-2010 06:56:04 -0.1 C 3.85 g/m*3 -0.1 C 0 km/h
36 22-04-2010 07:08:03 -0.2 C 3.82 g/m*3 -0.2 C 0 km/h
37 22-04-2010 07:20:02 -0.2 C 3.87 g/m*3 -0.2 C 0 km/h
38 22-04-2010 07:32:02 0 C 3.92 g/m*3 0 C 0 km/h
39 22-04-2010 07:44:02 0.1 C 3.95 g/m*3 0.1 C 0 km/h
40 22-04-2010 07:56:02 0.3 C 4.01 g/m*3 0.3 C 0 km/h
41 22-04-2010 08:08:02 0.3 C 3.96 g/m*3 0.3 C 0 km/h
42 22-04-2010 08:20:02 0.5 C 4.01 g/m*3 0.5 C 0 km/h
43 22-04-2010 08:32:02 0.6 C 3.99 g/m*3 0.6 C 0 km/h
44 22-04-2010 08:44:02 0.9 C 4.02 g/m*3 0.9 C 0 km/h
45 22-04-2010 08:56:02 1.3 C 4.08 g/m*3 1.3 C 0 km/h
46 22-04-2010 09:08:02 1.7 C 4.08 g/m*3 1.7 C 0 km/h
47 22-04-2010 09:20:02 2.2 C 4 g/m*3 2.2 C 0 km/h
48 22-04-2010 09:32:03 2.8 C 4.05 g/m*3 2.8 C 0 km/h
49 22-04-2010 09:44:03 3.5 C 4.12 g/m*3 3.5 C 0 km/h
50 22-04-2010 09:56:02 4.5 C 4.21 g/m*3 4.5 C 0 km/h
Sensor: Nr:Datum:Temp:Abs-Feuchte:Windchill:Wind:
Aussen-T/F 51 22-04-2010 10:08:01 5.2 C 3.99 g/m*3 5.2 C 0 km/h
52 22-04-2010 10:20:02 5.7 C 3.99 g/m*3 5.7 C 0 km/h
53 22-04-2010 10:32:02 6.4 C 3.73 g/m*3 6.4 C 0 km/h
54 22-04-2010 10:44:02 6.8 C 3.44 g/m*3 6.8 C 0 km/h
55 22-04-2010 10:56:02 7.3 C 3.24 g/m*3 7.3 C 0 km/h
56 22-04-2010 11:08:02 8.3 C 3.2 g/m*3 8.3 C 0 km/h
57 22-04-2010 11:20:02 8.7 C 3.03 g/m*3 8.7 C 0 km/h
58 22-04-2010 11:32:03 9 C 2.91 g/m*3 9 C 0 km/h
59 22-04-2010 11:44:03 9.7 C 3.04 g/m*3 9.7 C 0 km/h
60 22-04-2010 11:56:02 9.9 C 2.89 g/m*3 9.9 C 0 km/h
61 22-04-2010 12:08:01 10 C 2.82 g/m*3 10 C 0 km/h
62 22-04-2010 12:20:02 10.4 C 2.89 g/m*3 10.4 C 0 km/h
63 22-04-2010 12:32:02 10.9 C 2.88 g/m*3 10.9 C 0 km/h
64 22-04-2010 12:44:02 11.1 C 2.92 g/m*3 11.1 C 0 km/h
65 22-04-2010 12:56:02 11.4 C 2.77 g/m*3 11.4 C 0 km/h
66 22-04-2010 13:08:01 12 C 2.66 g/m*3 12 C 0 km/h
67 22-04-2010 13:20:01 12 C 2.13 g/m*3 12 C 0 km/h
68 22-04-2010 13:32:02 13 C 2.27 g/m*3 13 C 0 km/h
69 22-04-2010 13:44:02 13.5 C 2.34 g/m*3 13.5 C 0 km/h
70 22-04-2010 13:56:02 13.3 C 2.31 g/m*3 13.3 C 0 km/h
71 22-04-2010 14:08:02 13.8 C 2.38 g/m*3 13.8 C 0 km/h
72 22-04-2010 14:20:02 14.9 C 2.55 g/m*3 14.9 C 0 km/h
73 22-04-2010 14:32:02 15.5 C 2.64 g/m*3 15.5 C 0 km/h
74 22-04-2010 14:44:02 16 C 2.72 g/m*3 16 C 0 km/h
75 22-04-2010 14:56:02 16.3 C 2.77 g/m*3 16.3 C 0 km/h
Sensor: Nr:Datum:Temp:Abs-Feuchte:Windchill:Wind:
Aussen-T/F 76 22-04-2010 15:08:01 16.1 C 2.74 g/m*3 16.1 C 0 km/h
77 22-04-2010 15:20:02 16 C 2.72 g/m*3 16 C 0 km/h
78 22-04-2010 15:32:02 16 C 2.72 g/m*3 16 C 0 km/h
79 22-04-2010 15:44:02 17.5 C 2.98 g/m*3 17.5 C 0 km/h
80 22-04-2010 15:56:02 16.3 C 2.77 g/m*3 16.3 C 0 km/h
81 22-04-2010 16:08:02 16.3 C 2.77 g/m*3 16.3 C 0 km/h
82 22-04-2010 16:20:02 17.9 C 3.05 g/m*3 17.9 C 0 km/h
83 22-04-2010 16:32:03 18.9 C 3.24 g/m*3 18.9 C 0 km/h
84 22-04-2010 16:44:03 17.5 C 2.98 g/m*3 17.5 C 0 km/h
85 22-04-2010 16:56:02 18.8 C 3.22 g/m*3 18.8 C 0 km/h
86 22-04-2010 17:08:01 19.4 C 3.34 g/m*3 19.4 C 0 km/h
87 22-04-2010 17:20:02 19.4 C 3.34 g/m*3 19.4 C 0 km/h
88 22-04-2010 17:32:02 19.8 C 3.42 g/m*3 19.8 C 0 km/h
89 22-04-2010 17:44:02 21.6 C 3.79 g/m*3 21.6 C 0 km/h
90 22-04-2010 17:56:02 21.2 C 3.71 g/m*3 21.2 C 0 km/h
91 22-04-2010 18:08:03 19.3 C 3.32 g/m*3 19.3 C 0 km/h
92 22-04-2010 18:20:02 18.5 C 3.16 g/m*3 18.5 C 0 km/h
93 22-04-2010 18:32:02 18.9 C 3.24 g/m*3 18.9 C 0 km/h
94 22-04-2010 18:44:02 18.7 C 3.2 g/m*3 18.7 C 0 km/h
95 22-04-2010 18:56:02 17.8 C 3.04 g/m*3 17.8 C 0 km/h
96 22-04-2010 19:08:02 17.2 C 2.93 g/m*3 17.2 C 0 km/h
97 22-04-2010 19:20:01 17 C 2.89 g/m*3 17 C 0 km/h
98 22-04-2010 19:32:02 16.9 C 2.88 g/m*3 16.9 C 0 km/h
99 22-04-2010 19:44:02 16.5 C 2.81 g/m*3 16.5 C 0 km/h
100 22-04-2010 19:56:02 16.3 C 2.77 g/m*3 16.3 C 0 km/h
Sensor: Nr:Datum:Temp:Abs-Feuchte:Windchill:Wind:
Aussen-T/F 101 22-04-2010 20:08:02 15.1 C 2.58 g/m*3 15.1 C 0 km/h
102 22-04-2010 20:20:02 13.9 C 2.4 g/m*3 13.9 C 0 km/h
103 22-04-2010 20:32:02 13.5 C 2.34 g/m*3 13.5 C 0 km/h
104 22-04-2010 20:44:03 12.6 C 2.21 g/m*3 12.6 C 0 km/h
105 22-04-2010 20:56:02 12 C 2.13 g/m*3 12 C 0 km/h
106 22-04-2010 21:08:03 11.7 C 2.41 g/m*3 11.7 C 0 km/h
107 22-04-2010 21:20:02 11.2 C 2.64 g/m*3 11.2 C 0 km/h
108 22-04-2010 21:32:02 10.7 C 2.65 g/m*3 10.7 C 0 km/h
109 22-04-2010 21:44:02 10.3 C 2.68 g/m*3 10.3 C 0 km/h
110 22-04-2010 21:57:02 10 C 2.82 g/m*3 10 C 0 km/h
111 22-04-2010 22:09:02 9.9 C 2.8 g/m*3 9.9 C 0 km/h
112 22-04-2010 22:21:02 9.5 C 2.73 g/m*3 9.5 C 0 km/h
113 22-04-2010 22:33:02 9.2 C 2.77 g/m*3 9.2 C 0 km/h
114 22-04-2010 22:45:02 9.1 C 2.75 g/m*3 9.1 C 0 km/h
115 22-04-2010 22:57:02 8.7 C 2.94 g/m*3 8.7 C 0 km/h
116 22-04-2010 23:09:02 8.5 C 2.99 g/m*3 8.5 C 0 km/h
117 22-04-2010 23:21:02 8.3 C 3.12 g/m*3 8.3 C 0 km/h
118 22-04-2010 23:33:02 8.2 C 3.18 g/m*3 8.2 C 0 km/h
119 22-04-2010 23:45:02 7.9 C 3.29 g/m*3 7.9 C 0 km/h
120 22-04-2010 23:57:02 7.7 C 3.32 g/m*3 7.7 C 0 km/h

Legende:
   Min
   Max


Maximal/Minimal-Werte vom 22.04.2010 - 22.04.2010

Sensor Min Max Avg
Temp
(Aussen-T/F)
-0.2 °C
22-04-2010  06:08:04
21.6 °C
22-04-2010  17:44:02
8.35 °C
Abs-Feuchte
(Aussen-T/F)
2.13 g/m*3
22-04-2010  13:20:01
4.21 g/m*3
22-04-2010  09:56:02
3.26 g/m*3
Windchill
(Aussen-T/F)
-0.2 C
22-04-2010  06:08:04
21.6 C
22-04-2010  17:44:02
8.28 C

Die Daten stammen von einer Davis Vantage Pro 2 Wetter-Station und werden unter Linux mit der Software wview2wettercgi und aufbereitet. Alle Angaben erfolgen ohne Gewähr für ihre Vollständigkeit oder Richtigkeit.
Kontakt: Rainer Krienke krienke@uni-koblenz.de . Meine Webseiten an der Uni Koblenz oder privat.
Version: $Revision: 0.78 $